Terminal Aerodrome Forecast
Issued by NWS Wilmington, NC

Current Version | Previous Version | Graphics & Text | Print | Product List | Glossary Off
Versions: 1 2 3 4 5 6 7 8 9 10 11 12 13 14 15 16 17 18 19 20 21 22 23 24 25 26 27 28 29 30 31 32

000
FTUS42 KILM 131721
TAFILM
TAF
KILM 131721Z 1318/1418 19008KT P6SM TSRA BKN020CB
      TEMPO 1319/1323 2SM TSRA BKN015CB
     FM140200 21005KT P6SM BKN070
      TEMPO 1409/1413 5SM BR BKN025
     FM141600 22006KT P6SM VCTS BKN050CB=

USA.gov is the U.S. government's official web portal to all federal, state and local government web resources and services.